sensor_id;sensor_type;location;lat;lon;timestamp;P1;durP1;ratioP1;P2;durP2;ratioP2
58372;SDS011;44177;43.356;27.672;2023-06-19T00:01:46;2.08;;;1.52;;
58372;SDS011;44177;43.356;27.672;2023-06-19T00:04:11;0.80;;;0.80;;
58372;SDS011;44177;43.356;27.672;2023-06-19T00:06:37;1.13;;;1.02;;
58372;SDS011;44177;43.356;27.672;2023-06-19T00:09:03;0.75;;;0.75;;
58372;SDS011;44177;43.356;27.672;2023-06-19T00:11:28;1.80;;;0.90;;
58372;SDS011;44177;43.356;27.672;2023-06-19T00:13:54;0.77;;;0.77;;
58372;SDS011;44177;43.356;27.672;2023-06-19T00:16:20;1.08;;;0.95;;
58372;SDS011;44177;43.356;27.672;2023-06-19T00:18:45;1.20;;;0.75;;
58372;SDS011;44177;43.356;27.672;2023-06-19T00:21:11;1.25;;;0.95;;
58372;SDS011;44177;43.356;27.672;2023-06-19T00:23:37;1.83;;;1.30;;
58372;SDS011;44177;43.356;27.672;2023-06-19T00:26:02;1.30;;;1.23;;
58372;SDS011;44177;43.356;27.672;2023-06-19T00:28:28;0.93;;;0.93;;
58372;SDS011;44177;43.356;27.672;2023-06-19T00:30:54;1.10;;;1.00;;
58372;SDS011;44177;43.356;27.672;2023-06-19T00:33:20;1.25;;;1.00;;
58372;SDS011;44177;43.356;27.672;2023-06-19T00:35:46;1.92;;;1.60;;
58372;SDS011;44177;43.356;27.672;2023-06-19T00:38:13;0.77;;;0.77;;
58372;SDS011;44177;43.356;27.672;2023-06-19T00:40:38;1.45;;;1.17;;
58372;SDS011;44177;43.356;27.672;2023-06-19T00:43:05;3.42;;;1.30;;
58372;SDS011;44177;43.356;27.672;2023-06-19T00:45:31;1.00;;;0.93;;
58372;SDS011;44177;43.356;27.672;2023-06-19T00:47:56;4.72;;;1.20;;
58372;SDS011;44177;43.356;27.672;2023-06-19T00:50:23;1.75;;;1.35;;
58372;SDS011;44177;43.356;27.672;2023-06-19T00:52:49;1.50;;;1.40;;
58372;SDS011;44177;43.356;27.672;2023-06-19T00:55:15;1.80;;;1.52;;
58372;SDS011;44177;43.356;27.672;2023-06-19T00:57:41;1.85;;;1.35;;
58372;SDS011;44177;43.356;27.672;2023-06-19T01:00:07;2.47;;;1.25;;
58372;SDS011;44177;43.356;27.672;2023-06-19T01:02:34;1.90;;;1.55;;
58372;SDS011;44177;43.356;27.672;2023-06-19T01:04:59;1.85;;;1.15;;
58372;SDS011;44177;43.356;27.672;2023-06-19T01:07:38;0.93;;;0.90;;
58372;SDS011;44177;43.356;27.672;2023-06-19T01:10:09;1.42;;;1.33;;
58372;SDS011;44177;43.356;27.672;2023-06-19T01:12:40;1.25;;;1.15;;
58372;SDS011;44177;43.356;27.672;2023-06-19T01:15:13;2.78;;;1.65;;
58372;SDS011;44177;43.356;27.672;2023-06-19T01:17:39;1.27;;;1.17;;
58372;SDS011;44177;43.356;27.672;2023-06-19T01:20:06;2.00;;;1.35;;
58372;SDS011;44177;43.356;27.672;2023-06-19T01:22:36;1.30;;;1.20;;
58372;SDS011;44177;43.356;27.672;2023-06-19T01:25:02;2.08;;;1.58;;
58372;SDS011;44177;43.356;27.672;2023-06-19T01:27:29;1.60;;;1.30;;
58372;SDS011;44177;43.356;27.672;2023-06-19T01:29:55;1.65;;;1.33;;
58372;SDS011;44177;43.356;27.672;2023-06-19T01:35:03;1.23;;;1.13;;
58372;SDS011;44177;43.356;27.672;2023-06-19T01:37:32;2.45;;;1.42;;
58372;SDS011;44177;43.356;27.672;2023-06-19T01:39:58;1.77;;;1.52;;
58372;SDS011;44177;43.356;27.672;2023-06-19T01:42:26;1.52;;;0.95;;
58372;SDS011;44177;43.356;27.672;2023-06-19T01:44:53;1.40;;;1.13;;
58372;SDS011;44177;43.356;27.672;2023-06-19T01:47:19;1.58;;;1.42;;
58372;SDS011;44177;43.356;27.672;2023-06-19T01:49:47;1.52;;;1.42;;
58372;SDS011;44177;43.356;27.672;2023-06-19T01:52:13;3.95;;;1.90;;
58372;SDS011;44177;43.356;27.672;2023-06-19T01:54:39;1.92;;;1.40;;
58372;SDS011;44177;43.356;27.672;2023-06-19T01:57:05;2.50;;;1.80;;
58372;SDS011;44177;43.356;27.672;2023-06-19T01:59:31;2.53;;;1.23;;
58372;SDS011;44177;43.356;27.672;2023-06-19T02:01:56;2.95;;;1.50;;
58372;SDS011;44177;43.356;27.672;2023-06-19T02:04:22;1.75;;;1.25;;
58372;SDS011;44177;43.356;27.672;2023-06-19T02:06:47;2.35;;;1.77;;
58372;SDS011;44177;43.356;27.672;2023-06-19T02:09:13;1.70;;;1.45;;
58372;SDS011;44177;43.356;27.672;2023-06-19T02:11:38;1.30;;;1.20;;
58372;SDS011;44177;43.356;27.672;2023-06-19T02:14:04;2.70;;;1.60;;
58372;SDS011;44177;43.356;27.672;2023-06-19T02:16:29;2.00;;;1.50;;
58372;SDS011;44177;43.356;27.672;2023-06-19T02:18:55;1.30;;;1.20;;
58372;SDS011;44177;43.356;27.672;2023-06-19T02:21:21;3.13;;;1.60;;
58372;SDS011;44177;43.356;27.672;2023-06-19T02:23:47;2.67;;;1.70;;
58372;SDS011;44177;43.356;27.672;2023-06-19T02:26:12;1.75;;;1.55;;
58372;SDS011;44177;43.356;27.672;2023-06-19T02:28:38;1.42;;;1.33;;
58372;SDS011;44177;43.356;27.672;2023-06-19T02:31:03;3.25;;;2.20;;
58372;SDS011;44177;43.356;27.672;2023-06-19T02:33:29;3.28;;;1.70;;
58372;SDS011;44177;43.356;27.672;2023-06-19T02:35:54;2.63;;;1.55;;
58372;SDS011;44177;43.356;27.672;2023-06-19T02:38:24;1.90;;;1.67;;
58372;SDS011;44177;43.356;27.672;2023-06-19T02:40:55;2.65;;;1.85;;
58372;SDS011;44177;43.356;27.672;2023-06-19T02:43:22;2.58;;;1.52;;
58372;SDS011;44177;43.356;27.672;2023-06-19T02:45:48;2.33;;;1.63;;
58372;SDS011;44177;43.356;27.672;2023-06-19T02:48:13;2.22;;;1.42;;
58372;SDS011;44177;43.356;27.672;2023-06-19T02:50:39;1.90;;;1.70;;
58372;SDS011;44177;43.356;27.672;2023-06-19T02:53:04;1.63;;;1.52;;
58372;SDS011;44177;43.356;27.672;2023-06-19T02:55:30;4.22;;;2.00;;
58372;SDS011;44177;43.356;27.672;2023-06-19T02:57:55;2.35;;;1.92;;
58372;SDS011;44177;43.356;27.672;2023-06-19T03:00:20;1.65;;;1.50;;
58372;SDS011;44177;43.356;27.672;2023-06-19T03:02:46;1.50;;;1.38;;
58372;SDS011;44177;43.356;27.672;2023-06-19T03:05:13;1.45;;;1.35;;
58372;SDS011;44177;43.356;27.672;2023-06-19T03:07:42;2.33;;;2.10;;
58372;SDS011;44177;43.356;27.672;2023-06-19T03:10:07;2.17;;;1.80;;
58372;SDS011;44177;43.356;27.672;2023-06-19T03:12:33;1.85;;;1.75;;
58372;SDS011;44177;43.356;27.672;2023-06-19T03:14:59;3.63;;;2.22;;
58372;SDS011;44177;43.356;27.672;2023-06-19T03:17:24;1.27;;;1.17;;
58372;SDS011;44177;43.356;27.672;2023-06-19T03:19:50;2.35;;;2.15;;
58372;SDS011;44177;43.356;27.672;2023-06-19T03:22:15;3.75;;;2.15;;
58372;SDS011;44177;43.356;27.672;2023-06-19T03:24:41;1.65;;;1.55;;
58372;SDS011;44177;43.356;27.672;2023-06-19T03:27:06;2.63;;;1.70;;
58372;SDS011;44177;43.356;27.672;2023-06-19T03:29:32;3.38;;;2.17;;
58372;SDS011;44177;43.356;27.672;2023-06-19T03:31:57;2.80;;;2.35;;
58372;SDS011;44177;43.356;27.672;2023-06-19T03:34:22;3.08;;;2.25;;
58372;SDS011;44177;43.356;27.672;2023-06-19T03:36:48;2.40;;;2.05;;
58372;SDS011;44177;43.356;27.672;2023-06-19T03:39:13;2.83;;;2.03;;
58372;SDS011;44177;43.356;27.672;2023-06-19T03:41:39;1.98;;;1.70;;
58372;SDS011;44177;43.356;27.672;2023-06-19T03:44:04;3.15;;;2.13;;
58372;SDS011;44177;43.356;27.672;2023-06-19T03:46:30;4.00;;;2.50;;
58372;SDS011;44177;43.356;27.672;2023-06-19T03:48:55;2.17;;;1.63;;
58372;SDS011;44177;43.356;27.672;2023-06-19T03:51:21;2.63;;;1.88;;
58372;SDS011;44177;43.356;27.672;2023-06-19T03:53:46;3.22;;;2.25;;
58372;SDS011;44177;43.356;27.672;2023-06-19T03:56:12;2.53;;;1.88;;
58372;SDS011;44177;43.356;27.672;2023-06-19T03:58:37;5.32;;;2.08;;
58372;SDS011;44177;43.356;27.672;2023-06-19T04:01:03;1.48;;;1.20;;
58372;SDS011;44177;43.356;27.672;2023-06-19T04:03:28;2.28;;;1.95;;
58372;SDS011;44177;43.356;27.672;2023-06-19T04:05:54;2.03;;;1.75;;
58372;SDS011;44177;43.356;27.672;2023-06-19T04:08:19;1.95;;;1.48;;
58372;SDS011;44177;43.356;27.672;2023-06-19T04:10:45;2.55;;;1.80;;
58372;SDS011;44177;43.356;27.672;2023-06-19T04:13:10;2.13;;;1.73;;
58372;SDS011;44177;43.356;27.672;2023-06-19T04:15:35;3.17;;;1.88;;
58372;SDS011;44177;43.356;27.672;2023-06-19T04:18:02;1.90;;;1.42;;
58372;SDS011;44177;43.356;27.672;2023-06-19T04:20:28;1.33;;;1.23;;
58372;SDS011;44177;43.356;27.672;2023-06-19T04:22:53;1.67;;;1.30;;
58372;SDS011;44177;43.356;27.672;2023-06-19T04:25:19;2.17;;;1.58;;
58372;SDS011;44177;43.356;27.672;2023-06-19T04:27:44;2.08;;;1.52;;
58372;SDS011;44177;43.356;27.672;2023-06-19T04:30:10;2.17;;;1.58;;
58372;SDS011;44177;43.356;27.672;2023-06-19T04:32:36;2.42;;;1.63;;
58372;SDS011;44177;43.356;27.672;2023-06-19T04:35:05;1.67;;;1.40;;
58372;SDS011;44177;43.356;27.672;2023-06-19T04:37:35;0.90;;;0.80;;
58372;SDS011;44177;43.356;27.672;2023-06-19T04:40:00;3.70;;;1.23;;
58372;SDS011;44177;43.356;27.672;2023-06-19T04:42:26;2.03;;;1.30;;
58372;SDS011;44177;43.356;27.672;2023-06-19T04:44:52;1.10;;;1.00;;
58372;SDS011;44177;43.356;27.672;2023-06-19T04:47:19;1.40;;;1.27;;
58372;SDS011;44177;43.356;27.672;2023-06-19T04:49:48;1.40;;;1.00;;
58372;SDS011;44177;43.356;27.672;2023-06-19T04:52:14;1.40;;;1.30;;
58372;SDS011;44177;43.356;27.672;2023-06-19T04:54:39;1.50;;;0.95;;
58372;SDS011;44177;43.356;27.672;2023-06-19T04:57:05;1.40;;;1.17;;
58372;SDS011;44177;43.356;27.672;2023-06-19T04:59:31;0.90;;;0.80;;
58372;SDS011;44177;43.356;27.672;2023-06-19T05:01:57;3.92;;;1.05;;
58372;SDS011;44177;43.356;27.672;2023-06-19T05:04:23;1.15;;;1.05;;
58372;SDS011;44177;43.356;27.672;2023-06-19T05:06:48;1.35;;;0.88;;
58372;SDS011;44177;43.356;27.672;2023-06-19T05:09:15;0.98;;;0.77;;
58372;SDS011;44177;43.356;27.672;2023-06-19T05:11:40;1.95;;;1.05;;
58372;SDS011;44177;43.356;27.672;2023-06-19T05:14:06;1.42;;;0.98;;
58372;SDS011;44177;43.356;27.672;2023-06-19T05:16:31;0.52;;;0.52;;
58372;SDS011;44177;43.356;27.672;2023-06-19T05:18:58;0.70;;;0.70;;
58372;SDS011;44177;43.356;27.672;2023-06-19T05:21:23;1.67;;;0.80;;
58372;SDS011;44177;43.356;27.672;2023-06-19T05:23:49;1.92;;;1.30;;
58372;SDS011;44177;43.356;27.672;2023-06-19T05:26:16;0.60;;;0.60;;
58372;SDS011;44177;43.356;27.672;2023-06-19T05:28:42;2.20;;;0.95;;
58372;SDS011;44177;43.356;27.672;2023-06-19T05:31:07;0.50;;;0.50;;
58372;SDS011;44177;43.356;27.672;2023-06-19T05:33:33;0.80;;;0.55;;
58372;SDS011;44177;43.356;27.672;2023-06-19T05:35:58;0.73;;;0.73;;
58372;SDS011;44177;43.356;27.672;2023-06-19T05:38:24;0.65;;;0.65;;
58372;SDS011;44177;43.356;27.672;2023-06-19T05:40:51;1.00;;;0.60;;
58372;SDS011;44177;43.356;27.672;2023-06-19T05:43:17;0.70;;;0.68;;
58372;SDS011;44177;43.356;27.672;2023-06-19T05:45:43;0.63;;;0.60;;
58372;SDS011;44177;43.356;27.672;2023-06-19T05:48:09;0.88;;;0.88;;
58372;SDS011;44177;43.356;27.672;2023-06-19T05:50:34;0.50;;;0.50;;
58372;SDS011;44177;43.356;27.672;2023-06-19T05:53:00;1.20;;;0.90;;
58372;SDS011;44177;43.356;27.672;2023-06-19T05:55:25;0.88;;;0.70;;
58372;SDS011;44177;43.356;27.672;2023-06-19T05:57:52;0.98;;;0.35;;
58372;SDS011;44177;43.356;27.672;2023-06-19T06:00:18;0.95;;;0.85;;
58372;SDS011;44177;43.356;27.672;2023-06-19T06:02:44;0.98;;;0.93;;
58372;SDS011;44177;43.356;27.672;2023-06-19T06:05:09;0.75;;;0.75;;
58372;SDS011;44177;43.356;27.672;2023-06-19T06:07:35;0.95;;;0.80;;
58372;SDS011;44177;43.356;27.672;2023-06-19T06:10:01;0.65;;;0.65;;
58372;SDS011;44177;43.356;27.672;2023-06-19T06:12:27;0.88;;;0.80;;
58372;SDS011;44177;43.356;27.672;2023-06-19T06:14:52;0.95;;;0.90;;
58372;SDS011;44177;43.356;27.672;2023-06-19T06:17:17;1.13;;;1.02;;
58372;SDS011;44177;43.356;27.672;2023-06-19T06:19:43;0.95;;;0.50;;
58372;SDS011;44177;43.356;27.672;2023-06-19T06:22:08;0.60;;;0.60;;
58372;SDS011;44177;43.356;27.672;2023-06-19T06:24:34;1.15;;;0.82;;
58372;SDS011;44177;43.356;27.672;2023-06-19T06:26:59;1.33;;;0.98;;
58372;SDS011;44177;43.356;27.672;2023-06-19T06:29:25;1.50;;;0.55;;
58372;SDS011;44177;43.356;27.672;2023-06-19T06:31:50;1.38;;;0.95;;
58372;SDS011;44177;43.356;27.672;2023-06-19T06:34:19;0.82;;;0.82;;
58372;SDS011;44177;43.356;27.672;2023-06-19T06:36:44;0.75;;;0.75;;
58372;SDS011;44177;43.356;27.672;2023-06-19T06:39:10;0.60;;;0.60;;
58372;SDS011;44177;43.356;27.672;2023-06-19T06:41:36;0.93;;;0.80;;
58372;SDS011;44177;43.356;27.672;2023-06-19T06:44:01;0.98;;;0.85;;
58372;SDS011;44177;43.356;27.672;2023-06-19T06:46:27;0.80;;;0.80;;
58372;SDS011;44177;43.356;27.672;2023-06-19T06:48:53;0.68;;;0.68;;
58372;SDS011;44177;43.356;27.672;2023-06-19T06:51:18;1.17;;;0.85;;
58372;SDS011;44177;43.356;27.672;2023-06-19T06:53:44;0.90;;;0.60;;
58372;SDS011;44177;43.356;27.672;2023-06-19T06:56:10;1.15;;;0.98;;
58372;SDS011;44177;43.356;27.672;2023-06-19T06:58:35;0.85;;;0.73;;
58372;SDS011;44177;43.356;27.672;2023-06-19T07:01:01;1.85;;;1.10;;
58372;SDS011;44177;43.356;27.672;2023-06-19T07:03:27;1.75;;;0.70;;
58372;SDS011;44177;43.356;27.672;2023-06-19T07:05:55;1.38;;;0.82;;
58372;SDS011;44177;43.356;27.672;2023-06-19T07:08:20;0.55;;;0.55;;
58372;SDS011;44177;43.356;27.672;2023-06-19T07:10:46;0.75;;;0.75;;
58372;SDS011;44177;43.356;27.672;2023-06-19T07:13:11;0.70;;;0.70;;
58372;SDS011;44177;43.356;27.672;2023-06-19T07:15:37;0.80;;;0.80;;
58372;SDS011;44177;43.356;27.672;2023-06-19T07:18:02;0.88;;;0.60;;
58372;SDS011;44177;43.356;27.672;2023-06-19T07:20:28;1.38;;;0.90;;
58372;SDS011;44177;43.356;27.672;2023-06-19T07:22:53;1.02;;;0.93;;
58372;SDS011;44177;43.356;27.672;2023-06-19T07:25:19;0.82;;;0.75;;
58372;SDS011;44177;43.356;27.672;2023-06-19T07:27:45;1.30;;;1.20;;
58372;SDS011;44177;43.356;27.672;2023-06-19T07:30:10;0.80;;;0.75;;
58372;SDS011;44177;43.356;27.672;2023-06-19T07:32:36;0.80;;;0.80;;
58372;SDS011;44177;43.356;27.672;2023-06-19T07:35:02;1.52;;;1.00;;
58372;SDS011;44177;43.356;27.672;2023-06-19T07:37:29;0.90;;;0.90;;
58372;SDS011;44177;43.356;27.672;2023-06-19T07:39:54;1.30;;;0.90;;
58372;SDS011;44177;43.356;27.672;2023-06-19T07:42:21;0.73;;;0.73;;
58372;SDS011;44177;43.356;27.672;2023-06-19T07:44:46;1.30;;;0.80;;
58372;SDS011;44177;43.356;27.672;2023-06-19T07:47:12;2.78;;;0.90;;
58372;SDS011;44177;43.356;27.672;2023-06-19T07:49:38;0.63;;;0.63;;
58372;SDS011;44177;43.356;27.672;2023-06-19T07:52:04;0.70;;;0.70;;
58372;SDS011;44177;43.356;27.672;2023-06-19T07:54:30;0.80;;;0.80;;
58372;SDS011;44177;43.356;27.672;2023-06-19T07:56:55;0.80;;;0.73;;
58372;SDS011;44177;43.356;27.672;2023-06-19T07:59:30;0.70;;;0.70;;
58372;SDS011;44177;43.356;27.672;2023-06-19T08:01:55;0.73;;;0.73;;
58372;SDS011;44177;43.356;27.672;2023-06-19T08:04:21;1.30;;;1.05;;
58372;SDS011;44177;43.356;27.672;2023-06-19T08:06:46;1.23;;;0.65;;
58372;SDS011;44177;43.356;27.672;2023-06-19T08:09:11;0.93;;;0.90;;
58372;SDS011;44177;43.356;27.672;2023-06-19T08:11:37;1.10;;;1.00;;
58372;SDS011;44177;43.356;27.672;2023-06-19T08:14:02;0.80;;;0.80;;
58372;SDS011;44177;43.356;27.672;2023-06-19T08:16:28;1.15;;;1.10;;
58372;SDS011;44177;43.356;27.672;2023-06-19T08:18:53;1.67;;;0.85;;
58372;SDS011;44177;43.356;27.672;2023-06-19T08:21:19;0.98;;;0.90;;
58372;SDS011;44177;43.356;27.672;2023-06-19T08:23:46;0.70;;;0.70;;
58372;SDS011;44177;43.356;27.672;2023-06-19T08:26:12;1.13;;;0.80;;
58372;SDS011;44177;43.356;27.672;2023-06-19T08:28:37;2.03;;;1.17;;
58372;SDS011;44177;43.356;27.672;2023-06-19T08:31:03;0.60;;;0.60;;
58372;SDS011;44177;43.356;27.672;2023-06-19T08:33:28;1.13;;;1.02;;
58372;SDS011;44177;43.356;27.672;2023-06-19T08:35:54;0.77;;;0.73;;
58372;SDS011;44177;43.356;27.672;2023-06-19T08:38:19;0.90;;;0.85;;
58372;SDS011;44177;43.356;27.672;2023-06-19T08:40:45;1.13;;;0.95;;
58372;SDS011;44177;43.356;27.672;2023-06-19T08:43:10;0.85;;;0.85;;
58372;SDS011;44177;43.356;27.672;2023-06-19T08:45:36;1.10;;;0.80;;
58372;SDS011;44177;43.356;27.672;2023-06-19T08:48:02;1.10;;;1.00;;
58372;SDS011;44177;43.356;27.672;2023-06-19T08:50:33;1.40;;;0.65;;
58372;SDS011;44177;43.356;27.672;2023-06-19T08:52:59;1.00;;;0.90;;
58372;SDS011;44177;43.356;27.672;2023-06-19T08:55:25;0.80;;;0.80;;
58372;SDS011;44177;43.356;27.672;2023-06-19T08:57:50;0.70;;;0.70;;
58372;SDS011;44177;43.356;27.672;2023-06-19T09:00:27;0.90;;;0.90;;
58372;SDS011;44177;43.356;27.672;2023-06-19T09:03:00;3.05;;;0.82;;
58372;SDS011;44177;43.356;27.672;2023-06-19T09:05:27;0.43;;;0.43;;
58372;SDS011;44177;43.356;27.672;2023-06-19T09:07:54;0.93;;;0.70;;
58372;SDS011;44177;43.356;27.672;2023-06-19T09:10:25;0.70;;;0.70;;
58372;SDS011;44177;43.356;27.672;2023-06-19T09:15:26;0.77;;;0.60;;
58372;SDS011;44177;43.356;27.672;2023-06-19T09:18:09;0.73;;;0.73;;
58372;SDS011;44177;43.356;27.672;2023-06-19T09:20:40;0.65;;;0.65;;
58372;SDS011;44177;43.356;27.672;2023-06-19T09:23:10;0.63;;;0.63;;
58372;SDS011;44177;43.356;27.672;2023-06-19T09:25:46;0.75;;;0.75;;
58372;SDS011;44177;43.356;27.672;2023-06-19T09:28:20;0.88;;;0.80;;
58372;SDS011;44177;43.356;27.672;2023-06-19T09:30:53;0.75;;;0.60;;
58372;SDS011;44177;43.356;27.672;2023-06-19T09:33:20;1.00;;;0.70;;
58372;SDS011;44177;43.356;27.672;2023-06-19T09:35:45;1.10;;;0.95;;
58372;SDS011;44177;43.356;27.672;2023-06-19T09:38:12;1.23;;;1.00;;
58372;SDS011;44177;43.356;27.672;2023-06-19T09:40:38;0.70;;;0.70;;
58372;SDS011;44177;43.356;27.672;2023-06-19T09:43:04;0.90;;;0.70;;
58372;SDS011;44177;43.356;27.672;2023-06-19T09:45:32;0.63;;;0.63;;
58372;SDS011;44177;43.356;27.672;2023-06-19T09:47:59;1.45;;;0.80;;
58372;SDS011;44177;43.356;27.672;2023-06-19T09:50:24;0.95;;;0.95;;
58372;SDS011;44177;43.356;27.672;2023-06-19T09:52:52;0.73;;;0.73;;
58372;SDS011;44177;43.356;27.672;2023-06-19T09:55:20;1.02;;;0.93;;
58372;SDS011;44177;43.356;27.672;2023-06-19T09:57:49;0.90;;;0.90;;
58372;SDS011;44177;43.356;27.672;2023-06-19T10:00:16;1.00;;;1.00;;
58372;SDS011;44177;43.356;27.672;2023-06-19T10:02:50;0.90;;;0.90;;
58372;SDS011;44177;43.356;27.672;2023-06-19T10:05:16;0.82;;;0.82;;
58372;SDS011;44177;43.356;27.672;2023-06-19T10:07:44;0.90;;;0.90;;
58372;SDS011;44177;43.356;27.672;2023-06-19T10:10:12;2.47;;;1.17;;
58372;SDS011;44177;43.356;27.672;2023-06-19T10:12:48;0.90;;;0.90;;
58372;SDS011;44177;43.356;27.672;2023-06-19T10:15:27;1.85;;;1.10;;
58372;SDS011;44177;43.356;27.672;2023-06-19T10:18:00;1.13;;;1.05;;
58372;SDS011;44177;43.356;27.672;2023-06-19T10:20:31;0.70;;;0.70;;
58372;SDS011;44177;43.356;27.672;2023-06-19T10:22:58;0.70;;;0.70;;
58372;SDS011;44177;43.356;27.672;2023-06-19T10:25:27;1.15;;;0.60;;
58372;SDS011;44177;43.356;27.672;2023-06-19T10:27:54;1.27;;;1.00;;
58372;SDS011;44177;43.356;27.672;2023-06-19T10:30:20;1.05;;;0.88;;
58372;SDS011;44177;43.356;27.672;2023-06-19T10:32:48;0.88;;;0.85;;
58372;SDS011;44177;43.356;27.672;2023-06-19T10:35:14;1.00;;;0.80;;
58372;SDS011;44177;43.356;27.672;2023-06-19T10:37:41;0.80;;;0.80;;
58372;SDS011;44177;43.356;27.672;2023-06-19T10:40:07;0.68;;;0.68;;
58372;SDS011;44177;43.356;27.672;2023-06-19T10:42:36;1.30;;;0.80;;
58372;SDS011;44177;43.356;27.672;2023-06-19T10:45:03;0.93;;;0.85;;
58372;SDS011;44177;43.356;27.672;2023-06-19T10:47:31;1.65;;;1.08;;
58372;SDS011;44177;43.356;27.672;2023-06-19T10:49:58;1.15;;;1.05;;
58372;SDS011;44177;43.356;27.672;2023-06-19T10:52:23;1.23;;;0.82;;
58372;SDS011;44177;43.356;27.672;2023-06-19T10:54:55;0.98;;;0.85;;
58372;SDS011;44177;43.356;27.672;2023-06-19T10:57:28;1.00;;;1.00;;
58372;SDS011;44177;43.356;27.672;2023-06-19T10:59:56;1.05;;;0.95;;
58372;SDS011;44177;43.356;27.672;2023-06-19T11:02:23;1.10;;;0.80;;
58372;SDS011;44177;43.356;27.672;2023-06-19T11:04:53;1.17;;;1.00;;
58372;SDS011;44177;43.356;27.672;2023-06-19T11:07:22;1.33;;;0.98;;
58372;SDS011;44177;43.356;27.672;2023-06-19T11:09:48;1.85;;;1.20;;
58372;SDS011;44177;43.356;27.672;2023-06-19T11:12:20;1.02;;;0.93;;
58372;SDS011;44177;43.356;27.672;2023-06-19T11:14:47;1.20;;;1.10;;
58372;SDS011;44177;43.356;27.672;2023-06-19T11:17:14;1.38;;;1.02;;
58372;SDS011;44177;43.356;27.672;2023-06-19T11:19:40;0.82;;;0.82;;
58372;SDS011;44177;43.356;27.672;2023-06-19T11:22:08;1.60;;;1.05;;
58372;SDS011;44177;43.356;27.672;2023-06-19T11:24:34;1.58;;;0.77;;
58372;SDS011;44177;43.356;27.672;2023-06-19T11:27:00;1.05;;;0.95;;
58372;SDS011;44177;43.356;27.672;2023-06-19T11:29:26;1.00;;;1.00;;
58372;SDS011;44177;43.356;27.672;2023-06-19T11:32:04;1.80;;;1.20;;
58372;SDS011;44177;43.356;27.672;2023-06-19T11:34:34;1.23;;;0.90;;
58372;SDS011;44177;43.356;27.672;2023-06-19T11:37:02;1.20;;;0.80;;
58372;SDS011;44177;43.356;27.672;2023-06-19T11:39:36;0.93;;;0.90;;
58372;SDS011;44177;43.356;27.672;2023-06-19T11:42:02;0.88;;;0.88;;
58372;SDS011;44177;43.356;27.672;2023-06-19T11:44:28;1.15;;;1.08;;
58372;SDS011;44177;43.356;27.672;2023-06-19T11:46:56;1.42;;;1.13;;
58372;SDS011;44177;43.356;27.672;2023-06-19T11:49:23;1.10;;;1.00;;
58372;SDS011;44177;43.356;27.672;2023-06-19T11:51:48;1.13;;;1.08;;
58372;SDS011;44177;43.356;27.672;2023-06-19T11:54:14;1.40;;;1.30;;
58372;SDS011;44177;43.356;27.672;2023-06-19T11:56:40;0.85;;;0.85;;
58372;SDS011;44177;43.356;27.672;2023-06-19T11:59:06;1.05;;;0.95;;
58372;SDS011;44177;43.356;27.672;2023-06-19T12:01:33;1.10;;;1.10;;
58372;SDS011;44177;43.356;27.672;2023-06-19T12:04:00;1.23;;;1.13;;
58372;SDS011;44177;43.356;27.672;2023-06-19T12:06:26;1.38;;;1.17;;
58372;SDS011;44177;43.356;27.672;2023-06-19T12:08:52;1.10;;;1.00;;
58372;SDS011;44177;43.356;27.672;2023-06-19T12:11:18;1.02;;;0.95;;
58372;SDS011;44177;43.356;27.672;2023-06-19T12:13:44;1.08;;;1.00;;
58372;SDS011;44177;43.356;27.672;2023-06-19T12:16:09;1.83;;;1.13;;
58372;SDS011;44177;43.356;27.672;2023-06-19T12:18:35;1.45;;;1.10;;
58372;SDS011;44177;43.356;27.672;2023-06-19T12:21:01;1.13;;;1.02;;
58372;SDS011;44177;43.356;27.672;2023-06-19T12:23:27;1.10;;;1.00;;
58372;SDS011;44177;43.356;27.672;2023-06-19T12:25:53;1.05;;;1.05;;
58372;SDS011;44177;43.356;27.672;2023-06-19T12:28:19;1.13;;;1.02;;
58372;SDS011;44177;43.356;27.672;2023-06-19T12:30:44;0.93;;;0.85;;
58372;SDS011;44177;43.356;27.672;2023-06-19T12:33:10;1.77;;;1.20;;
58372;SDS011;44177;43.356;27.672;2023-06-19T12:35:39;1.35;;;0.95;;
58372;SDS011;44177;43.356;27.672;2023-06-19T12:38:08;1.42;;;1.20;;
58372;SDS011;44177;43.356;27.672;2023-06-19T12:40:34;1.10;;;0.95;;
58372;SDS011;44177;43.356;27.672;2023-06-19T12:43:01;1.92;;;1.20;;
58372;SDS011;44177;43.356;27.672;2023-06-19T12:45:26;1.48;;;1.17;;
58372;SDS011;44177;43.356;27.672;2023-06-19T12:47:52;0.75;;;0.75;;
58372;SDS011;44177;43.356;27.672;2023-06-19T12:50:17;1.38;;;1.27;;
58372;SDS011;44177;43.356;27.672;2023-06-19T12:52:43;1.13;;;1.05;;
58372;SDS011;44177;43.356;27.672;2023-06-19T12:55:08;1.27;;;1.17;;
58372;SDS011;44177;43.356;27.672;2023-06-19T12:57:34;2.60;;;1.30;;
58372;SDS011;44177;43.356;27.672;2023-06-19T12:59:59;1.30;;;1.20;;
58372;SDS011;44177;43.356;27.672;2023-06-19T13:02:25;0.93;;;0.80;;
58372;SDS011;44177;43.356;27.672;2023-06-19T13:04:50;0.90;;;0.90;;
58372;SDS011;44177;43.356;27.672;2023-06-19T13:07:17;1.23;;;1.13;;
58372;SDS011;44177;43.356;27.672;2023-06-19T13:09:42;1.20;;;1.02;;
58372;SDS011;44177;43.356;27.672;2023-06-19T13:12:08;1.52;;;1.20;;
58372;SDS011;44177;43.356;27.672;2023-06-19T13:14:34;1.00;;;1.00;;
58372;SDS011;44177;43.356;27.672;2023-06-19T13:16:59;4.32;;;1.17;;
58372;SDS011;44177;43.356;27.672;2023-06-19T13:19:25;0.95;;;0.90;;
58372;SDS011;44177;43.356;27.672;2023-06-19T13:21:51;1.25;;;1.10;;
58372;SDS011;44177;43.356;27.672;2023-06-19T13:24:16;1.50;;;1.40;;
58372;SDS011;44177;43.356;27.672;2023-06-19T13:26:42;1.33;;;1.23;;
58372;SDS011;44177;43.356;27.672;2023-06-19T13:29:09;1.17;;;1.10;;
58372;SDS011;44177;43.356;27.672;2023-06-19T13:31:36;1.00;;;1.00;;
58372;SDS011;44177;43.356;27.672;2023-06-19T13:34:02;1.42;;;1.20;;
58372;SDS011;44177;43.356;27.672;2023-06-19T13:36:27;1.00;;;0.70;;
58372;SDS011;44177;43.356;27.672;2023-06-19T13:38:53;0.90;;;0.90;;
58372;SDS011;44177;43.356;27.672;2023-06-19T13:41:19;0.73;;;0.73;;
58372;SDS011;44177;43.356;27.672;2023-06-19T13:43:44;0.90;;;0.90;;
58372;SDS011;44177;43.356;27.672;2023-06-19T13:46:13;0.88;;;0.85;;
58372;SDS011;44177;43.356;27.672;2023-06-19T13:48:38;1.10;;;0.90;;
58372;SDS011;44177;43.356;27.672;2023-06-19T13:51:03;1.13;;;1.02;;
58372;SDS011;44177;43.356;27.672;2023-06-19T13:53:29;2.15;;;1.25;;
58372;SDS011;44177;43.356;27.672;2023-06-19T13:55:55;1.38;;;1.20;;
58372;SDS011;44177;43.356;27.672;2023-06-19T13:58:20;1.42;;;1.27;;
58372;SDS011;44177;43.356;27.672;2023-06-19T14:00:46;1.77;;;1.15;;
58372;SDS011;44177;43.356;27.672;2023-06-19T14:03:12;1.00;;;0.90;;
58372;SDS011;44177;43.356;27.672;2023-06-19T14:05:38;1.25;;;1.15;;
58372;SDS011;44177;43.356;27.672;2023-06-19T14:08:04;3.63;;;1.45;;
58372;SDS011;44177;43.356;27.672;2023-06-19T14:10:30;1.95;;;1.20;;
58372;SDS011;44177;43.356;27.672;2023-06-19T14:12:56;2.08;;;1.02;;
58372;SDS011;44177;43.356;27.672;2023-06-19T14:15:21;1.10;;;1.00;;
58372;SDS011;44177;43.356;27.672;2023-06-19T14:17:47;0.80;;;0.80;;
58372;SDS011;44177;43.356;27.672;2023-06-19T14:20:12;1.17;;;0.80;;
58372;SDS011;44177;43.356;27.672;2023-06-19T14:22:38;1.33;;;1.23;;
58372;SDS011;44177;43.356;27.672;2023-06-19T14:25:03;0.82;;;0.80;;
58372;SDS011;44177;43.356;27.672;2023-06-19T14:27:29;1.33;;;1.05;;
58372;SDS011;44177;43.356;27.672;2023-06-19T14:29:56;1.25;;;1.10;;
58372;SDS011;44177;43.356;27.672;2023-06-19T14:32:22;1.60;;;1.30;;
58372;SDS011;44177;43.356;27.672;2023-06-19T14:34:51;0.88;;;0.88;;